IBE73M LEAL-LEBL
Flight info
| Callsign | IBE73M |
|---|---|
| Flight time | N/A |
| Altitude | 26000 |
| Route | MITOS N608 MATEX |
| Aircraft | A319/M-SDE3FGHIRWY/LB1 |
Departure
| Time | 2026-05-06 09:30 |
|---|---|
| Airport | Alicante-Elche Miguel Hernández Airport (LEAL) |
Arrival
| Time | N/A |
|---|---|
| Airport | Josep Tarradellas Barcelona-El Prat Airport (LEBL) |
| Time | Latitude | Longitude | Altitude | Speed | Heading |
|---|---|---|---|---|---|
| 2026-05-06 08:52 | 38.28533 | -0.55276 | 88 ft | 0 kts | 10° |
| 2026-05-06 09:19 | 38.28529 | -0.55277 | 88 ft | 3 kts | 10° |
| 2026-05-06 09:19 | 38.28503 | -0.55283 | 88 ft | 4 kts | 9° |
| 2026-05-06 09:20 | 38.28476 | -0.55287 | 89 ft | 4 kts | 359° |
| 2026-05-06 09:20 | 38.28454 | -0.55281 | 89 ft | 4 kts | 303° |
| 2026-05-06 09:20 | 38.28450 | -0.55275 | 89 ft | 1 kts | 280° |
| 2026-05-06 09:22 | 38.28457 | -0.55323 | 92 ft | 9 kts | 279° |
| 2026-05-06 09:23 | 38.28467 | -0.55395 | 92 ft | 8 kts | 281° |
| 2026-05-06 09:23 | 38.28477 | -0.55455 | 93 ft | 7 kts | 281° |
| 2026-05-06 09:23 | 38.28487 | -0.55518 | 96 ft | 8 kts | 281° |
| 2026-05-06 09:23 | 38.28478 | -0.55590 | 97 ft | 9 kts | 226° |
| 2026-05-06 09:24 | 38.28416 | -0.55608 | 97 ft | 8 kts | 187° |
| 2026-05-06 09:24 | 38.28375 | -0.55644 | 101 ft | 8 kts | 253° |
| 2026-05-06 09:24 | 38.28381 | -0.55713 | 101 ft | 8 kts | 279° |
| 2026-05-06 09:24 | 38.28394 | -0.55817 | 103 ft | 15 kts | 279° |
| 2026-05-06 09:25 | 38.28411 | -0.55945 | 106 ft | 14 kts | 279° |
| 2026-05-06 09:25 | 38.28428 | -0.56059 | 108 ft | 13 kts | 281° |
| 2026-05-06 09:25 | 38.28448 | -0.56187 | 108 ft | 18 kts | 281° |
| 2026-05-06 09:25 | 38.28467 | -0.56348 | 112 ft | 18 kts | 280° |
| 2026-05-06 09:26 | 38.28487 | -0.56487 | 115 ft | 15 kts | 280° |
| 2026-05-06 09:26 | 38.28504 | -0.56607 | 119 ft | 13 kts | 280° |
| 2026-05-06 09:26 | 38.28523 | -0.56739 | 124 ft | 18 kts | 280° |
| 2026-05-06 09:26 | 38.28543 | -0.56880 | 126 ft | 14 kts | 280° |
| 2026-05-06 09:27 | 38.28557 | -0.56982 | 136 ft | 10 kts | 281° |
| 2026-05-06 09:27 | 38.28568 | -0.57056 | 139 ft | 9 kts | 281° |
| 2026-05-06 09:27 | 38.28582 | -0.57158 | 143 ft | 13 kts | 279° |
| 2026-05-06 09:27 | 38.28597 | -0.57270 | 148 ft | 13 kts | 279° |
| 2026-05-06 09:28 | 38.28609 | -0.57386 | 152 ft | 13 kts | 262° |
| 2026-05-06 09:28 | 38.28544 | -0.57429 | 154 ft | 10 kts | 189° |
| 2026-05-06 09:28 | 38.28474 | -0.57444 | 155 ft | 10 kts | 189° |
| 2026-05-06 09:28 | 38.28441 | -0.57427 | 154 ft | 5 kts | 97° |
| 2026-05-06 09:29 | 38.28441 | -0.57424 | 154 ft | 0 kts | 95° |
| 2026-05-06 09:29 | 38.28438 | -0.57391 | 152 ft | 26 kts | 98° |
| 2026-05-06 09:29 | 38.28356 | -0.56803 | 128 ft | 105 kts | 100° |
| 2026-05-06 09:29 | 38.28196 | -0.55636 | 153 ft | 158 kts | 98° |
| 2026-05-06 09:30 | 38.28005 | -0.54274 | 806 ft | 157 kts | 99° |
| 2026-05-06 09:30 | 38.27806 | -0.52900 | 1487 ft | 159 kts | 100° |
| 2026-05-06 09:30 | 38.27598 | -0.51508 | 2198 ft | 161 kts | 98° |
| 2026-05-06 09:30 | 38.27506 | -0.50071 | 2861 ft | 164 kts | 88° |
| 2026-05-06 09:31 | 38.27612 | -0.48615 | 3523 ft | 166 kts | 78° |
| 2026-05-06 09:31 | 38.27921 | -0.47156 | 4069 ft | 177 kts | 70° |
| 2026-05-06 09:31 | 38.28404 | -0.45663 | 4597 ft | 188 kts | 65° |
| 2026-05-06 09:31 | 38.29020 | -0.44148 | 5129 ft | 198 kts | 58° |
| 2026-05-06 09:32 | 38.29535 | -0.43158 | 5432 ft | 207 kts | 54° |
| 2026-05-06 09:32 | 38.30450 | -0.41650 | 5880 ft | 224 kts | 50° |
| 2026-05-06 09:32 | 38.31500 | -0.40021 | 6249 ft | 251 kts | 51° |
| 2026-05-06 09:32 | 38.32611 | -0.38169 | 6748 ft | 274 kts | 53° |
| 2026-05-06 09:33 | 38.33742 | -0.36121 | 7344 ft | 292 kts | 56° |
| 2026-05-06 09:33 | 38.34728 | -0.33774 | 7956 ft | 310 kts | 69° |
| 2026-05-06 09:33 | 38.35356 | -0.31080 | 8573 ft | 325 kts | 75° |
| 2026-05-06 09:33 | 38.35961 | -0.28269 | 9502 ft | 328 kts | 74° |
| 2026-05-06 09:34 | 38.36675 | -0.25482 | 10374 ft | 334 kts | 69° |
| 2026-05-06 09:34 | 38.37572 | -0.22660 | 10842 ft | 353 kts | 65° |
| 2026-05-06 09:34 | 38.38669 | -0.19777 | 11304 ft | 369 kts | 62° |
| 2026-05-06 09:34 | 38.39879 | -0.16878 | 11802 ft | 382 kts | 61° |
| 2026-05-06 09:35 | 38.41134 | -0.13829 | 12315 ft | 394 kts | 63° |
| 2026-05-06 09:35 | 38.42296 | -0.10607 | 12869 ft | 404 kts | 63° |
| 2026-05-06 09:35 | 38.43721 | -0.07480 | 13423 ft | 412 kts | 53° |
| 2026-05-06 09:35 | 38.45679 | -0.04786 | 13859 ft | 419 kts | 37° |
| 2026-05-06 09:36 | 38.48173 | -0.02835 | 14392 ft | 421 kts | 21° |
| 2026-05-06 09:36 | 38.50959 | -0.01699 | 14979 ft | 421 kts | 8° |
| 2026-05-06 09:36 | 38.53870 | -0.01327 | 15551 ft | 421 kts | 357° |
| 2026-05-06 09:36 | 38.56812 | -0.01322 | 16110 ft | 425 kts | 357° |
| 2026-05-06 09:37 | 38.59787 | -0.01308 | 16658 ft | 429 kts | 357° |
| 2026-05-06 09:37 | 38.62790 | -0.01283 | 17186 ft | 433 kts | 357° |
| 2026-05-06 09:37 | 38.65822 | -0.01252 | 17740 ft | 437 kts | 357° |
| 2026-05-06 09:37 | 38.68874 | -0.01220 | 18268 ft | 441 kts | 357° |
| 2026-05-06 09:38 | 38.71956 | -0.01192 | 18711 ft | 444 kts | 357° |
| 2026-05-06 09:38 | 38.75056 | -0.01170 | 19150 ft | 447 kts | 357° |
| 2026-05-06 09:38 | 38.78180 | -0.01155 | 19596 ft | 450 kts | 356° |
| 2026-05-06 09:38 | 38.81301 | -0.01141 | 20348 ft | 442 kts | 356° |
| 2026-05-06 09:39 | 38.84280 | -0.01115 | 21631 ft | 424 kts | 356° |
| 2026-05-06 09:39 | 38.87188 | -0.01080 | 22794 ft | 413 kts | 355° |
| 2026-05-06 09:39 | 38.90059 | -0.01053 | 23529 ft | 413 kts | 354° |
| 2026-05-06 09:39 | 38.92943 | -0.01039 | 24035 ft | 415 kts | 354° |
| 2026-05-06 09:40 | 38.95843 | -0.01028 | 24518 ft | 418 kts | 354° |
| 2026-05-06 09:40 | 38.98766 | -0.01014 | 24985 ft | 421 kts | 354° |
| 2026-05-06 09:40 | 39.04670 | -0.00981 | 25839 ft | 427 kts | 354° |
| 2026-05-06 09:41 | 39.07677 | -0.00962 | 25957 ft | 439 kts | 354° |